sensor_id;sensor_type;location;lat;lon;timestamp;P1;durP1;ratioP1;P2;durP2;ratioP2
10090;SDS011;5084;51.386;6.778;2024-01-06T00:02:16;8.90;;;8.00;;
10090;SDS011;5084;51.386;6.778;2024-01-06T00:04:42;8.70;;;7.90;;
10090;SDS011;5084;51.386;6.778;2024-01-06T00:07:08;9.00;;;8.10;;
10090;SDS011;5084;51.386;6.778;2024-01-06T00:09:34;8.97;;;8.07;;
10090;SDS011;5084;51.386;6.778;2024-01-06T00:12:00;7.87;;;7.10;;
10090;SDS011;5084;51.386;6.778;2024-01-06T00:14:27;9.10;;;8.20;;
10090;SDS011;5084;51.386;6.778;2024-01-06T00:16:53;10.97;;;8.57;;
10090;SDS011;5084;51.386;6.778;2024-01-06T00:19:19;8.70;;;7.90;;
10090;SDS011;5084;51.386;6.778;2024-01-06T00:21:45;8.03;;;7.27;;
10090;SDS011;5084;51.386;6.778;2024-01-06T00:24:11;8.53;;;7.67;;
10090;SDS011;5084;51.386;6.778;2024-01-06T00:26:37;9.47;;;8.47;;
10090;SDS011;5084;51.386;6.778;2024-01-06T00:29:03;10.13;;;8.90;;
10090;SDS011;5084;51.386;6.778;2024-01-06T00:31:29;10.53;;;8.87;;
10090;SDS011;5084;51.386;6.778;2024-01-06T00:33:55;9.33;;;8.40;;
10090;SDS011;5084;51.386;6.778;2024-01-06T00:36:21;9.30;;;8.10;;
10090;SDS011;5084;51.386;6.778;2024-01-06T00:38:47;9.73;;;8.80;;
10090;SDS011;5084;51.386;6.778;2024-01-06T00:41:13;8.97;;;8.07;;
10090;SDS011;5084;51.386;6.778;2024-01-06T00:43:40;9.47;;;8.47;;
10090;SDS011;5084;51.386;6.778;2024-01-06T00:46:06;8.20;;;7.37;;
10090;SDS011;5084;51.386;6.778;2024-01-06T00:48:32;9.50;;;8.60;;
10090;SDS011;5084;51.386;6.778;2024-01-06T00:50:58;9.43;;;7.90;;
10090;SDS011;5084;51.386;6.778;2024-01-06T00:53:24;8.60;;;7.70;;
10090;SDS011;5084;51.386;6.778;2024-01-06T00:55:50;8.20;;;7.40;;
10090;SDS011;5084;51.386;6.778;2024-01-06T00:58:16;8.20;;;7.20;;
10090;SDS011;5084;51.386;6.778;2024-01-06T01:00:42;7.60;;;6.90;;
10090;SDS011;5084;51.386;6.778;2024-01-06T01:03:08;7.87;;;7.17;;
10090;SDS011;5084;51.386;6.778;2024-01-06T01:05:34;7.80;;;6.77;;
10090;SDS011;5084;51.386;6.778;2024-01-06T01:08:00;8.17;;;7.43;;
10090;SDS011;5084;51.386;6.778;2024-01-06T01:10:26;8.73;;;7.93;;
10090;SDS011;5084;51.386;6.778;2024-01-06T01:12:52;9.00;;;8.00;;
10090;SDS011;5084;51.386;6.778;2024-01-06T01:15:18;8.83;;;8.03;;
10090;SDS011;5084;51.386;6.778;2024-01-06T01:17:44;8.83;;;8.03;;
10090;SDS011;5084;51.386;6.778;2024-01-06T01:20:10;9.13;;;8.27;;
10090;SDS011;5084;51.386;6.778;2024-01-06T01:22:36;9.60;;;8.63;;
10090;SDS011;5084;51.386;6.778;2024-01-06T01:25:02;9.67;;;8.77;;
10090;SDS011;5084;51.386;6.778;2024-01-06T01:27:32;9.07;;;8.20;;
10090;SDS011;5084;51.386;6.778;2024-01-06T01:29:58;9.23;;;8.10;;
10090;SDS011;5084;51.386;6.778;2024-01-06T01:32:24;9.23;;;8.40;;
10090;SDS011;5084;51.386;6.778;2024-01-06T01:34:50;9.60;;;8.60;;
10090;SDS011;5084;51.386;6.778;2024-01-06T01:37:16;11.60;;;10.60;;
10090;SDS011;5084;51.386;6.778;2024-01-06T01:39:42;11.40;;;10.30;;
10090;SDS011;5084;51.386;6.778;2024-01-06T01:42:09;10.07;;;9.07;;
10090;SDS011;5084;51.386;6.778;2024-01-06T01:44:35;9.90;;;9.00;;
10090;SDS011;5084;51.386;6.778;2024-01-06T01:47:02;10.10;;;9.10;;
10090;SDS011;5084;51.386;6.778;2024-01-06T01:49:28;9.83;;;8.97;;
10090;SDS011;5084;51.386;6.778;2024-01-06T01:51:54;11.00;;;9.90;;
10090;SDS011;5084;51.386;6.778;2024-01-06T01:54:20;10.07;;;9.07;;
10090;SDS011;5084;51.386;6.778;2024-01-06T01:56:47;10.43;;;9.27;;
10090;SDS011;5084;51.386;6.778;2024-01-06T01:59:13;11.03;;;9.90;;
10090;SDS011;5084;51.386;6.778;2024-01-06T02:01:39;10.80;;;9.77;;
10090;SDS011;5084;51.386;6.778;2024-01-06T02:04:05;12.00;;;10.10;;
10090;SDS011;5084;51.386;6.778;2024-01-06T02:06:32;11.00;;;9.90;;
10090;SDS011;5084;51.386;6.778;2024-01-06T02:08:58;10.33;;;9.30;;
10090;SDS011;5084;51.386;6.778;2024-01-06T02:11:24;11.03;;;9.90;;
10090;SDS011;5084;51.386;6.778;2024-01-06T02:13:50;11.60;;;10.40;;
10090;SDS011;5084;51.386;6.778;2024-01-06T02:16:16;12.03;;;10.70;;
10090;SDS011;5084;51.386;6.778;2024-01-06T02:18:42;12.37;;;10.20;;
10090;SDS011;5084;51.386;6.778;2024-01-06T02:21:08;10.93;;;9.90;;
10090;SDS011;5084;51.386;6.778;2024-01-06T02:23:35;11.53;;;10.40;;
10090;SDS011;5084;51.386;6.778;2024-01-06T02:26:02;10.93;;;9.83;;
10090;SDS011;5084;51.386;6.778;2024-01-06T02:28:28;12.17;;;10.93;;
10090;SDS011;5084;51.386;6.778;2024-01-06T02:30:54;11.77;;;10.57;;
10090;SDS011;5084;51.386;6.778;2024-01-06T02:33:20;11.07;;;9.87;;
10090;SDS011;5084;51.386;6.778;2024-01-06T02:35:48;12.43;;;11.13;;
10090;SDS011;5084;51.386;6.778;2024-01-06T02:38:14;12.63;;;10.87;;
10090;SDS011;5084;51.386;6.778;2024-01-06T02:40:40;12.90;;;11.47;;
10090;SDS011;5084;51.386;6.778;2024-01-06T02:43:07;12.50;;;10.70;;
10090;SDS011;5084;51.386;6.778;2024-01-06T02:45:34;11.73;;;10.37;;
10090;SDS011;5084;51.386;6.778;2024-01-06T02:48:00;12.63;;;11.13;;
10090;SDS011;5084;51.386;6.778;2024-01-06T02:50:26;12.77;;;11.47;;
10090;SDS011;5084;51.386;6.778;2024-01-06T02:52:52;12.63;;;11.23;;
10090;SDS011;5084;51.386;6.778;2024-01-06T02:55:18;13.20;;;11.50;;
10090;SDS011;5084;51.386;6.778;2024-01-06T02:57:44;12.80;;;11.30;;
10090;SDS011;5084;51.386;6.778;2024-01-06T03:00:10;13.73;;;12.17;;
10090;SDS011;5084;51.386;6.778;2024-01-06T03:02:37;12.70;;;11.40;;
10090;SDS011;5084;51.386;6.778;2024-01-06T03:05:06;13.47;;;11.30;;
10090;SDS011;5084;51.386;6.778;2024-01-06T03:07:33;12.50;;;11.20;;
10090;SDS011;5084;51.386;6.778;2024-01-06T03:09:59;15.53;;;11.93;;
10090;SDS011;5084;51.386;6.778;2024-01-06T03:12:25;14.83;;;12.63;;
10090;SDS011;5084;51.386;6.778;2024-01-06T03:14:51;13.17;;;11.77;;
10090;SDS011;5084;51.386;6.778;2024-01-06T03:17:17;14.17;;;11.90;;
10090;SDS011;5084;51.386;6.778;2024-01-06T03:19:44;15.87;;;12.53;;
10090;SDS011;5084;51.386;6.778;2024-01-06T03:22:10;13.97;;;11.77;;
10090;SDS011;5084;51.386;6.778;2024-01-06T03:24:35;13.57;;;12.17;;
10090;SDS011;5084;51.386;6.778;2024-01-06T03:27:02;11.93;;;10.60;;
10090;SDS011;5084;51.386;6.778;2024-01-06T03:29:28;15.90;;;12.17;;
10090;SDS011;5084;51.386;6.778;2024-01-06T03:31:54;13.33;;;11.03;;
10090;SDS011;5084;51.386;6.778;2024-01-06T03:34:20;11.73;;;10.27;;
10090;SDS011;5084;51.386;6.778;2024-01-06T03:36:46;13.80;;;11.20;;
10090;SDS011;5084;51.386;6.778;2024-01-06T03:39:12;14.70;;;10.83;;
10090;SDS011;5084;51.386;6.778;2024-01-06T03:41:39;12.10;;;9.67;;
10090;SDS011;5084;51.386;6.778;2024-01-06T03:44:05;13.63;;;10.00;;
10090;SDS011;5084;51.386;6.778;2024-01-06T03:46:31;11.70;;;9.50;;
10090;SDS011;5084;51.386;6.778;2024-01-06T03:48:57;14.10;;;10.73;;
10090;SDS011;5084;51.386;6.778;2024-01-06T03:51:23;15.30;;;9.87;;
10090;SDS011;5084;51.386;6.778;2024-01-06T03:53:49;14.87;;;10.17;;
10090;SDS011;5084;51.386;6.778;2024-01-06T03:56:15;10.97;;;8.40;;
10090;SDS011;5084;51.386;6.778;2024-01-06T03:58:41;11.67;;;9.33;;
10090;SDS011;5084;51.386;6.778;2024-01-06T04:01:07;12.97;;;9.33;;
10090;SDS011;5084;51.386;6.778;2024-01-06T04:03:33;11.93;;;8.30;;
10090;SDS011;5084;51.386;6.778;2024-01-06T04:05:59;10.27;;;8.03;;
10090;SDS011;5084;51.386;6.778;2024-01-06T04:08:25;11.27;;;8.13;;
10090;SDS011;5084;51.386;6.778;2024-01-06T04:10:51;12.33;;;8.27;;
10090;SDS011;5084;51.386;6.778;2024-01-06T04:13:17;11.93;;;8.33;;
10090;SDS011;5084;51.386;6.778;2024-01-06T04:15:43;10.77;;;8.20;;
10090;SDS011;5084;51.386;6.778;2024-01-06T04:18:09;11.53;;;8.67;;
10090;SDS011;5084;51.386;6.778;2024-01-06T04:20:35;11.63;;;9.10;;
10090;SDS011;5084;51.386;6.778;2024-01-06T04:23:01;9.77;;;7.83;;
10090;SDS011;5084;51.386;6.778;2024-01-06T04:25:28;8.37;;;7.33;;
10090;SDS011;5084;51.386;6.778;2024-01-06T04:27:54;12.33;;;8.03;;
10090;SDS011;5084;51.386;6.778;2024-01-06T04:30:20;10.13;;;8.00;;
10090;SDS011;5084;51.386;6.778;2024-01-06T04:32:46;11.63;;;8.47;;
10090;SDS011;5084;51.386;6.778;2024-01-06T04:35:13;11.77;;;7.87;;
10090;SDS011;5084;51.386;6.778;2024-01-06T04:37:39;10.67;;;7.63;;
10090;SDS011;5084;51.386;6.778;2024-01-06T04:40:06;11.03;;;8.23;;
10090;SDS011;5084;51.386;6.778;2024-01-06T04:42:33;9.30;;;7.73;;
10090;SDS011;5084;51.386;6.778;2024-01-06T04:44:59;8.70;;;6.80;;
10090;SDS011;5084;51.386;6.778;2024-01-06T04:47:25;10.67;;;7.53;;
10090;SDS011;5084;51.386;6.778;2024-01-06T04:49:52;10.53;;;8.07;;
10090;SDS011;5084;51.386;6.778;2024-01-06T04:52:18;9.83;;;7.53;;
10090;SDS011;5084;51.386;6.778;2024-01-06T04:54:44;10.17;;;7.37;;
10090;SDS011;5084;51.386;6.778;2024-01-06T04:57:10;10.10;;;8.03;;
10090;SDS011;5084;51.386;6.778;2024-01-06T04:59:36;8.07;;;6.73;;
10090;SDS011;5084;51.386;6.778;2024-01-06T05:02:02;8.33;;;7.23;;
10090;SDS011;5084;51.386;6.778;2024-01-06T05:04:29;8.07;;;6.50;;
10090;SDS011;5084;51.386;6.778;2024-01-06T05:06:57;8.93;;;7.13;;
10090;SDS011;5084;51.386;6.778;2024-01-06T05:09:23;8.53;;;6.73;;
10090;SDS011;5084;51.386;6.778;2024-01-06T05:11:49;7.47;;;6.60;;
10090;SDS011;5084;51.386;6.778;2024-01-06T05:14:15;8.90;;;6.77;;
10090;SDS011;5084;51.386;6.778;2024-01-06T05:16:41;7.90;;;6.23;;
10090;SDS011;5084;51.386;6.778;2024-01-06T05:19:07;7.87;;;6.30;;
10090;SDS011;5084;51.386;6.778;2024-01-06T05:21:33;10.00;;;6.90;;
10090;SDS011;5084;51.386;6.778;2024-01-06T05:23:59;7.60;;;6.50;;
10090;SDS011;5084;51.386;6.778;2024-01-06T05:26:26;9.03;;;7.00;;
10090;SDS011;5084;51.386;6.778;2024-01-06T05:28:52;8.13;;;6.77;;
10090;SDS011;5084;51.386;6.778;2024-01-06T05:31:18;8.90;;;6.63;;
10090;SDS011;5084;51.386;6.778;2024-01-06T05:33:44;9.80;;;7.80;;
10090;SDS011;5084;51.386;6.778;2024-01-06T05:36:10;8.33;;;6.47;;
10090;SDS011;5084;51.386;6.778;2024-01-06T05:38:36;11.17;;;7.93;;
10090;SDS011;5084;51.386;6.778;2024-01-06T05:41:02;9.90;;;7.43;;
10090;SDS011;5084;51.386;6.778;2024-01-06T05:43:28;10.13;;;7.63;;
10090;SDS011;5084;51.386;6.778;2024-01-06T05:45:54;7.93;;;7.00;;
10090;SDS011;5084;51.386;6.778;2024-01-06T05:48:20;9.93;;;7.53;;
10090;SDS011;5084;51.386;6.778;2024-01-06T05:50:46;10.30;;;8.47;;
10090;SDS011;5084;51.386;6.778;2024-01-06T05:53:12;10.33;;;7.67;;
10090;SDS011;5084;51.386;6.778;2024-01-06T05:55:39;11.90;;;8.87;;
10090;SDS011;5084;51.386;6.778;2024-01-06T05:58:05;11.43;;;8.40;;
10090;SDS011;5084;51.386;6.778;2024-01-06T06:00:31;9.03;;;7.77;;
10090;SDS011;5084;51.386;6.778;2024-01-06T06:02:57;11.27;;;8.37;;
10090;SDS011;5084;51.386;6.778;2024-01-06T06:05:24;11.27;;;8.67;;
10090;SDS011;5084;51.386;6.778;2024-01-06T06:07:50;12.60;;;8.27;;
10090;SDS011;5084;51.386;6.778;2024-01-06T06:10:16;10.70;;;8.73;;
10090;SDS011;5084;51.386;6.778;2024-01-06T06:12:43;10.23;;;8.10;;
10090;SDS011;5084;51.386;6.778;2024-01-06T06:15:10;10.17;;;8.23;;
10090;SDS011;5084;51.386;6.778;2024-01-06T06:17:36;10.90;;;8.20;;
10090;SDS011;5084;51.386;6.778;2024-01-06T06:20:02;10.20;;;8.63;;
10090;SDS011;5084;51.386;6.778;2024-01-06T06:22:28;10.27;;;8.40;;
10090;SDS011;5084;51.386;6.778;2024-01-06T06:24:58;11.07;;;8.90;;
10090;SDS011;5084;51.386;6.778;2024-01-06T06:27:24;12.63;;;8.33;;
10090;SDS011;5084;51.386;6.778;2024-01-06T06:29:51;10.13;;;8.97;;
10090;SDS011;5084;51.386;6.778;2024-01-06T06:32:17;11.23;;;8.73;;
10090;SDS011;5084;51.386;6.778;2024-01-06T06:34:43;10.67;;;8.17;;
10090;SDS011;5084;51.386;6.778;2024-01-06T06:37:09;11.13;;;8.97;;
10090;SDS011;5084;51.386;6.778;2024-01-06T06:39:35;11.50;;;8.63;;
10090;SDS011;5084;51.386;6.778;2024-01-06T06:42:01;10.87;;;8.20;;
10090;SDS011;5084;51.386;6.778;2024-01-06T06:44:28;10.47;;;8.63;;
10090;SDS011;5084;51.386;6.778;2024-01-06T06:46:54;10.73;;;7.83;;
10090;SDS011;5084;51.386;6.778;2024-01-06T06:49:20;11.43;;;8.93;;
10090;SDS011;5084;51.386;6.778;2024-01-06T06:51:46;12.47;;;9.40;;
10090;SDS011;5084;51.386;6.778;2024-01-06T06:54:13;11.60;;;8.70;;
10090;SDS011;5084;51.386;6.778;2024-01-06T06:56:40;11.30;;;9.33;;
10090;SDS011;5084;51.386;6.778;2024-01-06T06:59:06;10.60;;;8.43;;
10090;SDS011;5084;51.386;6.778;2024-01-06T07:01:32;10.80;;;8.17;;
10090;SDS011;5084;51.386;6.778;2024-01-06T07:03:59;12.70;;;9.00;;
10090;SDS011;5084;51.386;6.778;2024-01-06T07:06:25;11.00;;;8.63;;
10090;SDS011;5084;51.386;6.778;2024-01-06T07:08:51;11.53;;;9.10;;
10090;SDS011;5084;51.386;6.778;2024-01-06T07:11:17;10.70;;;8.17;;
10090;SDS011;5084;51.386;6.778;2024-01-06T07:13:44;10.93;;;8.10;;
10090;SDS011;5084;51.386;6.778;2024-01-06T07:16:10;11.37;;;8.47;;
10090;SDS011;5084;51.386;6.778;2024-01-06T07:18:36;13.33;;;9.20;;
10090;SDS011;5084;51.386;6.778;2024-01-06T07:21:05;13.00;;;8.60;;
10090;SDS011;5084;51.386;6.778;2024-01-06T07:23:31;13.17;;;8.40;;
10090;SDS011;5084;51.386;6.778;2024-01-06T07:25:58;14.67;;;10.60;;
10090;SDS011;5084;51.386;6.778;2024-01-06T07:28:24;12.30;;;8.80;;
10090;SDS011;5084;51.386;6.778;2024-01-06T07:30:50;13.97;;;9.53;;
10090;SDS011;5084;51.386;6.778;2024-01-06T07:33:16;13.63;;;9.83;;
10090;SDS011;5084;51.386;6.778;2024-01-06T07:35:42;13.50;;;9.13;;
10090;SDS011;5084;51.386;6.778;2024-01-06T07:38:11;15.37;;;9.20;;
10090;SDS011;5084;51.386;6.778;2024-01-06T07:40:37;11.70;;;8.77;;
10090;SDS011;5084;51.386;6.778;2024-01-06T07:43:03;17.10;;;10.40;;
10090;SDS011;5084;51.386;6.778;2024-01-06T07:45:30;11.83;;;8.57;;
10090;SDS011;5084;51.386;6.778;2024-01-06T07:47:56;10.27;;;7.90;;
10090;SDS011;5084;51.386;6.778;2024-01-06T07:50:22;12.43;;;8.60;;
10090;SDS011;5084;51.386;6.778;2024-01-06T07:52:48;13.43;;;9.43;;
10090;SDS011;5084;51.386;6.778;2024-01-06T07:55:14;12.53;;;9.13;;
10090;SDS011;5084;51.386;6.778;2024-01-06T07:57:41;13.00;;;9.00;;
10090;SDS011;5084;51.386;6.778;2024-01-06T08:00:07;11.77;;;8.77;;
10090;SDS011;5084;51.386;6.778;2024-01-06T08:02:33;10.27;;;8.63;;
10090;SDS011;5084;51.386;6.778;2024-01-06T08:04:59;12.93;;;9.10;;
10090;SDS011;5084;51.386;6.778;2024-01-06T08:07:26;12.57;;;9.00;;
10090;SDS011;5084;51.386;6.778;2024-01-06T08:09:52;13.33;;;9.57;;
10090;SDS011;5084;51.386;6.778;2024-01-06T08:12:18;14.00;;;9.43;;
10090;SDS011;5084;51.386;6.778;2024-01-06T08:14:44;11.93;;;8.93;;
10090;SDS011;5084;51.386;6.778;2024-01-06T08:17:10;15.33;;;9.10;;
10090;SDS011;5084;51.386;6.778;2024-01-06T08:19:36;11.93;;;8.63;;
10090;SDS011;5084;51.386;6.778;2024-01-06T08:22:02;12.37;;;8.67;;
10090;SDS011;5084;51.386;6.778;2024-01-06T08:24:28;13.20;;;9.63;;
10090;SDS011;5084;51.386;6.778;2024-01-06T08:26:54;13.37;;;9.33;;
10090;SDS011;5084;51.386;6.778;2024-01-06T08:29:20;11.30;;;8.13;;
10090;SDS011;5084;51.386;6.778;2024-01-06T08:31:46;14.47;;;10.30;;
10090;SDS011;5084;51.386;6.778;2024-01-06T08:34:12;13.13;;;9.20;;
10090;SDS011;5084;51.386;6.778;2024-01-06T08:36:39;12.20;;;9.23;;
10090;SDS011;5084;51.386;6.778;2024-01-06T08:39:06;12.83;;;10.20;;
10090;SDS011;5084;51.386;6.778;2024-01-06T08:41:33;13.20;;;8.87;;
10090;SDS011;5084;51.386;6.778;2024-01-06T08:43:59;15.13;;;10.03;;
10090;SDS011;5084;51.386;6.778;2024-01-06T08:46:25;13.47;;;10.10;;
10090;SDS011;5084;51.386;6.778;2024-01-06T08:48:51;16.10;;;11.00;;
10090;SDS011;5084;51.386;6.778;2024-01-06T08:51:17;15.30;;;10.23;;
10090;SDS011;5084;51.386;6.778;2024-01-06T08:53:45;12.70;;;9.27;;
10090;SDS011;5084;51.386;6.778;2024-01-06T08:56:11;13.30;;;10.10;;
10090;SDS011;5084;51.386;6.778;2024-01-06T08:58:37;13.60;;;9.30;;
10090;SDS011;5084;51.386;6.778;2024-01-06T09:01:03;18.20;;;11.90;;
10090;SDS011;5084;51.386;6.778;2024-01-06T09:03:29;14.13;;;10.60;;
10090;SDS011;5084;51.386;6.778;2024-01-06T09:05:56;16.37;;;11.47;;
10090;SDS011;5084;51.386;6.778;2024-01-06T09:08:22;17.00;;;11.07;;
10090;SDS011;5084;51.386;6.778;2024-01-06T09:10:49;16.03;;;11.80;;
10090;SDS011;5084;51.386;6.778;2024-01-06T09:13:22;15.23;;;11.70;;
10090;SDS011;5084;51.386;6.778;2024-01-06T09:15:49;14.93;;;10.40;;
10090;SDS011;5084;51.386;6.778;2024-01-06T09:18:16;17.17;;;11.43;;
10090;SDS011;5084;51.386;6.778;2024-01-06T09:20:42;15.70;;;11.50;;
10090;SDS011;5084;51.386;6.778;2024-01-06T09:23:08;18.53;;;12.50;;
10090;SDS011;5084;51.386;6.778;2024-01-06T09:25:35;18.47;;;13.37;;
10090;SDS011;5084;51.386;6.778;2024-01-06T09:28:01;16.43;;;12.60;;
10090;SDS011;5084;51.386;6.778;2024-01-06T09:30:30;19.33;;;13.10;;
10090;SDS011;5084;51.386;6.778;2024-01-06T09:32:56;18.50;;;14.00;;
10090;SDS011;5084;51.386;6.778;2024-01-06T09:35:23;21.27;;;14.03;;
10090;SDS011;5084;51.386;6.778;2024-01-06T09:37:49;20.93;;;13.53;;
10090;SDS011;5084;51.386;6.778;2024-01-06T09:40:16;20.13;;;14.07;;
10090;SDS011;5084;51.386;6.778;2024-01-06T09:42:46;19.17;;;13.07;;
10090;SDS011;5084;51.386;6.778;2024-01-06T09:45:12;17.93;;;14.27;;
10090;SDS011;5084;51.386;6.778;2024-01-06T09:47:38;19.37;;;13.53;;
10090;SDS011;5084;51.386;6.778;2024-01-06T09:50:06;17.07;;;11.97;;
10090;SDS011;5084;51.386;6.778;2024-01-06T09:52:34;19.63;;;13.07;;
10090;SDS011;5084;51.386;6.778;2024-01-06T09:55:03;18.10;;;12.27;;
10090;SDS011;5084;51.386;6.778;2024-01-06T09:57:34;20.37;;;13.50;;
10090;SDS011;5084;51.386;6.778;2024-01-06T10:00:01;20.03;;;13.40;;
10090;SDS011;5084;51.386;6.778;2024-01-06T10:02:27;19.40;;;13.33;;
10090;SDS011;5084;51.386;6.778;2024-01-06T10:04:53;16.47;;;11.93;;
10090;SDS011;5084;51.386;6.778;2024-01-06T10:07:19;17.20;;;12.03;;
10090;SDS011;5084;51.386;6.778;2024-01-06T10:09:45;17.07;;;11.00;;
10090;SDS011;5084;51.386;6.778;2024-01-06T10:12:11;17.83;;;11.27;;
10090;SDS011;5084;51.386;6.778;2024-01-06T10:14:37;17.40;;;11.70;;
10090;SDS011;5084;51.386;6.778;2024-01-06T10:17:07;15.50;;;10.10;;
10090;SDS011;5084;51.386;6.778;2024-01-06T10:19:34;14.53;;;11.30;;
10090;SDS011;5084;51.386;6.778;2024-01-06T10:22:01;17.03;;;11.53;;
10090;SDS011;5084;51.386;6.778;2024-01-06T10:24:27;14.27;;;10.17;;
10090;SDS011;5084;51.386;6.778;2024-01-06T10:26:54;15.03;;;10.63;;
10090;SDS011;5084;51.386;6.778;2024-01-06T10:29:20;16.93;;;10.67;;
10090;SDS011;5084;51.386;6.778;2024-01-06T10:31:46;13.57;;;10.00;;
10090;SDS011;5084;51.386;6.778;2024-01-06T10:34:14;15.27;;;10.33;;
10090;SDS011;5084;51.386;6.778;2024-01-06T10:36:40;15.90;;;9.37;;
10090;SDS011;5084;51.386;6.778;2024-01-06T10:39:06;14.00;;;9.73;;
10090;SDS011;5084;51.386;6.778;2024-01-06T10:41:32;10.93;;;8.03;;
10090;SDS011;5084;51.386;6.778;2024-01-06T10:43:59;8.27;;;6.77;;
10090;SDS011;5084;51.386;6.778;2024-01-06T10:46:26;8.40;;;6.30;;
10090;SDS011;5084;51.386;6.778;2024-01-06T10:48:52;9.63;;;7.77;;
10090;SDS011;5084;51.386;6.778;2024-01-06T10:51:19;9.40;;;7.30;;
10090;SDS011;5084;51.386;6.778;2024-01-06T10:53:47;8.90;;;7.33;;
10090;SDS011;5084;51.386;6.778;2024-01-06T10:56:14;11.30;;;7.50;;
10090;SDS011;5084;51.386;6.778;2024-01-06T10:58:48;9.23;;;7.17;;
10090;SDS011;5084;51.386;6.778;2024-01-06T11:01:19;10.80;;;6.73;;
10090;SDS011;5084;51.386;6.778;2024-01-06T11:03:46;9.47;;;7.37;;
10090;SDS011;5084;51.386;6.778;2024-01-06T11:06:14;10.90;;;7.40;;
10090;SDS011;5084;51.386;6.778;2024-01-06T11:11:27;11.30;;;7.70;;
10090;SDS011;5084;51.386;6.778;2024-01-06T11:14:10;8.90;;;7.57;;
10090;SDS011;5084;51.386;6.778;2024-01-06T11:16:40;11.67;;;8.13;;
10090;SDS011;5084;51.386;6.778;2024-01-06T11:21:50;11.70;;;8.17;;
10090;SDS011;5084;51.386;6.778;2024-01-06T11:24:19;10.43;;;7.93;;
10090;SDS011;5084;51.386;6.778;2024-01-06T11:26:49;20.00;;;13.57;;
10090;SDS011;5084;51.386;6.778;2024-01-06T11:29:15;19.83;;;12.83;;
10090;SDS011;5084;51.386;6.778;2024-01-06T11:31:41;21.77;;;12.50;;
10090;SDS011;5084;51.386;6.778;2024-01-06T11:34:17;18.10;;;11.93;;
10090;SDS011;5084;51.386;6.778;2024-01-06T11:36:47;21.13;;;12.87;;
10090;SDS011;5084;51.386;6.778;2024-01-06T11:41:58;18.37;;;12.60;;
10090;SDS011;5084;51.386;6.778;2024-01-06T11:44:26;21.60;;;14.03;;
10090;SDS011;5084;51.386;6.778;2024-01-06T11:46:55;21.70;;;12.97;;
10090;SDS011;5084;51.386;6.778;2024-01-06T11:49:22;21.60;;;13.57;;
10090;SDS011;5084;51.386;6.778;2024-01-06T11:51:53;19.90;;;13.53;;
10090;SDS011;5084;51.386;6.778;2024-01-06T11:54:20;21.53;;;12.97;;
10090;SDS011;5084;51.386;6.778;2024-01-06T11:56:47;20.97;;;13.43;;
10090;SDS011;5084;51.386;6.778;2024-01-06T11:59:13;21.67;;;13.60;;
10090;SDS011;5084;51.386;6.778;2024-01-06T12:01:40;20.47;;;12.57;;
10090;SDS011;5084;51.386;6.778;2024-01-06T12:04:07;16.77;;;11.33;;
10090;SDS011;5084;51.386;6.778;2024-01-06T12:09:36;21.13;;;12.93;;
10090;SDS011;5084;51.386;6.778;2024-01-06T12:12:03;19.43;;;12.10;;
10090;SDS011;5084;51.386;6.778;2024-01-06T12:14:30;16.70;;;11.83;;
10090;SDS011;5084;51.386;6.778;2024-01-06T12:16:57;16.90;;;11.53;;
10090;SDS011;5084;51.386;6.778;2024-01-06T12:19:27;17.63;;;11.73;;
10090;SDS011;5084;51.386;6.778;2024-01-06T12:21:54;17.63;;;12.00;;
10090;SDS011;5084;51.386;6.778;2024-01-06T12:24:20;19.87;;;12.93;;
10090;SDS011;5084;51.386;6.778;2024-01-06T12:26:46;14.93;;;10.70;;
10090;SDS011;5084;51.386;6.778;2024-01-06T12:29:12;16.07;;;11.63;;
10090;SDS011;5084;51.386;6.778;2024-01-06T12:31:39;16.20;;;10.93;;
10090;SDS011;5084;51.386;6.778;2024-01-06T12:34:05;15.60;;;11.50;;
10090;SDS011;5084;51.386;6.778;2024-01-06T12:36:33;18.23;;;11.40;;
10090;SDS011;5084;51.386;6.778;2024-01-06T12:38:59;13.97;;;10.73;;
10090;SDS011;5084;51.386;6.778;2024-01-06T12:41:27;16.63;;;10.73;;
10090;SDS011;5084;51.386;6.778;2024-01-06T12:43:53;14.90;;;10.73;;
10090;SDS011;5084;51.386;6.778;2024-01-06T12:46:19;15.30;;;9.90;;
10090;SDS011;5084;51.386;6.778;2024-01-06T12:48:45;16.20;;;10.23;;
10090;SDS011;5084;51.386;6.778;2024-01-06T12:51:12;18.10;;;10.67;;
10090;SDS011;5084;51.386;6.778;2024-01-06T12:53:38;14.83;;;9.20;;
10090;SDS011;5084;51.386;6.778;2024-01-06T12:56:04;12.53;;;8.83;;
10090;SDS011;5084;51.386;6.778;2024-01-06T12:58:30;11.77;;;7.60;;
10090;SDS011;5084;51.386;6.778;2024-01-06T13:00:56;11.73;;;8.47;;
10090;SDS011;5084;51.386;6.778;2024-01-06T13:03:22;11.70;;;9.27;;
10090;SDS011;5084;51.386;6.778;2024-01-06T13:05:48;10.67;;;7.43;;
10090;SDS011;5084;51.386;6.778;2024-01-06T13:08:14;11.43;;;7.53;;
10090;SDS011;5084;51.386;6.778;2024-01-06T13:10:41;13.57;;;9.33;;
10090;SDS011;5084;51.386;6.778;2024-01-06T13:13:07;16.13;;;11.33;;
10090;SDS011;5084;51.386;6.778;2024-01-06T13:15:33;18.67;;;12.63;;
10090;SDS011;5084;51.386;6.778;2024-01-06T13:17:59;17.40;;;11.47;;
10090;SDS011;5084;51.386;6.778;2024-01-06T13:20:26;18.20;;;12.37;;
10090;SDS011;5084;51.386;6.778;2024-01-06T13:22:52;16.50;;;12.70;;
10090;SDS011;5084;51.386;6.778;2024-01-06T13:25:18;17.87;;;12.20;;
10090;SDS011;5084;51.386;6.778;2024-01-06T13:27:45;18.80;;;11.80;;
10090;SDS011;5084;51.386;6.778;2024-01-06T13:30:11;18.73;;;12.27;;
10090;SDS011;5084;51.386;6.778;2024-01-06T13:32:38;16.37;;;11.93;;
10090;SDS011;5084;51.386;6.778;2024-01-06T13:35:04;14.70;;;11.33;;
10090;SDS011;5084;51.386;6.778;2024-01-06T13:37:33;15.20;;;11.33;;
10090;SDS011;5084;51.386;6.778;2024-01-06T13:39:59;15.83;;;12.10;;
10090;SDS011;5084;51.386;6.778;2024-01-06T13:42:25;15.77;;;11.80;;
10090;SDS011;5084;51.386;6.778;2024-01-06T13:44:51;16.50;;;12.07;;
10090;SDS011;5084;51.386;6.778;2024-01-06T13:47:18;19.10;;;11.77;;
10090;SDS011;5084;51.386;6.778;2024-01-06T13:49:44;18.30;;;11.47;;
10090;SDS011;5084;51.386;6.778;2024-01-06T13:52:10;17.40;;;11.37;;
10090;SDS011;5084;51.386;6.778;2024-01-06T13:54:36;15.83;;;11.57;;
10090;SDS011;5084;51.386;6.778;2024-01-06T13:57:02;15.77;;;11.30;;
10090;SDS011;5084;51.386;6.778;2024-01-06T13:59:28;17.80;;;11.83;;
10090;SDS011;5084;51.386;6.778;2024-01-06T14:01:54;16.43;;;11.17;;
10090;SDS011;5084;51.386;6.778;2024-01-06T14:04:20;16.17;;;12.13;;
10090;SDS011;5084;51.386;6.778;2024-01-06T14:06:48;15.70;;;10.40;;
10090;SDS011;5084;51.386;6.778;2024-01-06T14:09:20;16.57;;;11.73;;
10090;SDS011;5084;51.386;6.778;2024-01-06T14:11:47;21.17;;;12.23;;
10090;SDS011;5084;51.386;6.778;2024-01-06T14:14:13;22.83;;;14.63;;
10090;SDS011;5084;51.386;6.778;2024-01-06T14:16:39;14.17;;;10.60;;
10090;SDS011;5084;51.386;6.778;2024-01-06T14:19:05;13.43;;;10.27;;
10090;SDS011;5084;51.386;6.778;2024-01-06T14:21:31;16.83;;;10.70;;
10090;SDS011;5084;51.386;6.778;2024-01-06T14:23:57;19.73;;;13.53;;
10090;SDS011;5084;51.386;6.778;2024-01-06T14:26:24;18.30;;;11.97;;
10090;SDS011;5084;51.386;6.778;2024-01-06T14:28:50;17.53;;;12.30;;
10090;SDS011;5084;51.386;6.778;2024-01-06T14:31:17;41.37;;;13.10;;
10090;SDS011;5084;51.386;6.778;2024-01-06T14:33:43;15.37;;;11.63;;
10090;SDS011;5084;51.386;6.778;2024-01-06T14:36:10;38.63;;;13.93;;
10090;SDS011;5084;51.386;6.778;2024-01-06T14:38:36;22.77;;;12.63;;
10090;SDS011;5084;51.386;6.778;2024-01-06T14:41:02;24.40;;;13.00;;
10090;SDS011;5084;51.386;6.778;2024-01-06T14:43:28;20.63;;;12.20;;
10090;SDS011;5084;51.386;6.778;2024-01-06T14:45:55;17.30;;;11.47;;
10090;SDS011;5084;51.386;6.778;2024-01-06T14:48:21;19.63;;;12.20;;
10090;SDS011;5084;51.386;6.778;2024-01-06T14:50:47;20.63;;;10.77;;
10090;SDS011;5084;51.386;6.778;2024-01-06T14:53:13;14.17;;;9.77;;